ADDS METAR Data INFO
IDs: Format: Raw Decoded Include TAF

Data at: 1914 UTC 23 Apr 2018

KSMQ 231853Z AUTO 14005KT 10SM CLR 20/M01 A3041 RMK AO2 SLP298 T02001006
KSMQ 231753Z AUTO 15008G16KT 10SM CLR 19/01 A3042 RMK AO2 SLP301 T01940006 10194 20050 56013
KSMQ 231653Z AUTO 18007KT 10SM CLR 18/M02 A3042 RMK AO2 SLP302 T01831017
KSMQ 231553Z AUTO 16005KT 10SM CLR 18/M03 A3044 RMK AO2 SLP309 T01781028
KSMQ 231453Z AUTO 00000KT 10SM CLR 17/00 A3045 RMK AO2 SLP313 T01670000 50000
KSMQ 231353Z AUTO VRB04KT 10SM CLR 14/M02 A3046 RMK AO2 SLP316 T01441017
KSMQ 231253Z AUTO 00000KT 10SM CLR 11/M01 A3046 RMK AO2 SLP314 T01111006
KSMQ 231153Z AUTO 00000KT 10SM CLR 05/00 A3045 RMK AO2 SLP314 T00500000 10050 21011 53016
KSMQ 231053Z AUTO 00000KT 10SM CLR 01/M01 A3044 RMK AO2 SLP308 T00111006
KSMQ 230953Z AUTO 32003KT 10SM CLR 01/M01 A3041 RMK AO2 SLP300 T00061011
KSMQ 230853Z AUTO 00000KT 10SM CLR 00/M01 A3041 RMK AO2 SLP299 T00001006 51007
KSMQ 230753Z AUTO 31003KT 10SM CLR 01/M01 A3041 RMK AO2 SLP297 T00061011
KSMQ 230653Z AUTO 00000KT 10SM CLR 02/M01 A3040 RMK AO2 SLP294 T00171006
KSMQ 230553Z AUTO 00000KT 10SM CLR 03/00 A3039 RMK AO2 SLP290 T00280000 10139 20028 51010
KSMQ 230453Z AUTO 30003KT 10SM CLR 03/00 A3038 RMK AO2 SLP288 T00330000 402001017
KSMQ 230353Z AUTO 00000KT 10SM CLR 06/00 A3037 RMK AO2 SLP285 T00560000
KSMQ 230253Z AUTO 00000KT 10SM CLR 09/M02 A3036 RMK AO2 SLP280 T00891022 51021
KSMQ 230153Z AUTO 15005KT 10SM CLR 11/M02 A3035 RMK AO2 SLP276 T01061017
KSMQ 230053Z AUTO 11003KT 10SM CLR 09/M03 A3033 RMK AO2 SLP271 T00941033
KSMQ 222353Z AUTO 00000KT 10SM CLR 13/M03 A3030 RMK AO2 SLP260 T01331028 10200 20133 53001
KSMQ 222253Z AUTO 31003KT 10SM CLR 19/M10 A3029 RMK AO2 SLP257 T01891100
KSMQ 222153Z AUTO VRB03KT 10SM CLR 19/M08 A3029 RMK AO2 SLP258 T01891078
KSMQ 222053Z AUTO VRB03KT 10SM CLR 19/M08 A3029 RMK AO2 SLP260 T01891083 56019
KSMQ 221953Z AUTO VRB03KT 10SM CLR 19/M08 A3030 RMK AO2 SLP263 T01891078
KSMQ 221853Z AUTO VRB03KT 10SM CLR 18/M08 A3033 RMK AO2 SLP269 T01831083
KSMQ 221753Z AUTO 35010G16KT 290V010 10SM CLR 17/M08 A3035 RMK AO2 SLP278 T01721078 10178 20039 56017
KSMQ 221653Z AUTO 31006KT 10SM CLR 17/M10 A3036 RMK AO2 SLP282 T01721100
KSMQ 221553Z AUTO 36008KT 10SM CLR 16/M09 A3039 RMK AO2 SLP290 T01561089
KSMQ 221453Z AUTO VRB05KT 10SM CLR 14/M07 A3040 RMK AO2 SLP295 T01441067 58005
KSMQ 221353Z AUTO VRB05KT 10SM CLR 13/M06 A3041 RMK AO2 SLP298 T01281056
KSMQ 221253Z AUTO 33003KT 10SM CLR 09/M03 A3042 RMK AO2 SLP301 T00941028
KSMQ 221153Z AUTO 00000KT 10SM CLR 04/M02 A3042 RMK AO2 SLP301 T00391022 10039 21017 51015
KSMQ 221053Z AUTO 00000KT 10SM CLR M01/M03 A3041 RMK AO2 SLP299 T10061028
KSMQ 220953Z AUTO 00000KT 10SM CLR M01/M03 A3039 RMK AO2 SLP291 T10111028
KSMQ 220853Z AUTO 00000KT 10SM CLR M01/M02 A3037 RMK AO2 SLP286 T10061022 50002
KSMQ 220753Z AUTO 32003KT 10SM CLR 00/M02 A3038 RMK AO2 SLP288 T00001022